sensor_id;sensor_type;location;lat;lon;timestamp;P1;durP1;ratioP1;P2;durP2;ratioP2
71046;SDS011;58703;48.978;8.982;2023-02-20T00:00:18;8.07;;;2.60;;
71046;SDS011;58703;48.978;8.982;2023-02-20T00:02:48;10.25;;;3.33;;
71046;SDS011;58703;48.978;8.982;2023-02-20T00:05:14;7.07;;;2.53;;
71046;SDS011;58703;48.978;8.982;2023-02-20T00:07:39;6.83;;;3.00;;
71046;SDS011;58703;48.978;8.982;2023-02-20T00:10:05;6.30;;;2.60;;
71046;SDS011;58703;48.978;8.982;2023-02-20T00:12:31;8.73;;;3.33;;
71046;SDS011;58703;48.978;8.982;2023-02-20T00:14:57;8.20;;;2.83;;
71046;SDS011;58703;48.978;8.982;2023-02-20T00:17:22;6.23;;;2.77;;
71046;SDS011;58703;48.978;8.982;2023-02-20T00:19:48;5.63;;;2.25;;
71046;SDS011;58703;48.978;8.982;2023-02-20T00:22:14;9.70;;;3.37;;
71046;SDS011;58703;48.978;8.982;2023-02-20T00:24:39;10.33;;;2.90;;
71046;SDS011;58703;48.978;8.982;2023-02-20T00:27:05;7.05;;;2.85;;
71046;SDS011;58703;48.978;8.982;2023-02-20T00:29:31;9.27;;;2.42;;
71046;SDS011;58703;48.978;8.982;2023-02-20T00:31:57;5.60;;;2.55;;
71046;SDS011;58703;48.978;8.982;2023-02-20T00:34:25;9.07;;;3.30;;
71046;SDS011;58703;48.978;8.982;2023-02-20T00:36:51;6.88;;;2.65;;
71046;SDS011;58703;48.978;8.982;2023-02-20T00:39:17;7.60;;;2.77;;
71046;SDS011;58703;48.978;8.982;2023-02-20T00:41:43;7.18;;;2.92;;
71046;SDS011;58703;48.978;8.982;2023-02-20T00:44:09;6.67;;;2.90;;
71046;SDS011;58703;48.978;8.982;2023-02-20T00:46:34;6.57;;;2.25;;
71046;SDS011;58703;48.978;8.982;2023-02-20T00:49:00;8.02;;;3.00;;
71046;SDS011;58703;48.978;8.982;2023-02-20T00:51:26;8.20;;;2.80;;
71046;SDS011;58703;48.978;8.982;2023-02-20T00:53:52;7.28;;;2.63;;
71046;SDS011;58703;48.978;8.982;2023-02-20T00:56:18;6.80;;;3.07;;
71046;SDS011;58703;48.978;8.982;2023-02-20T00:58:43;7.53;;;3.00;;
71046;SDS011;58703;48.978;8.982;2023-02-20T01:01:09;10.00;;;2.83;;
71046;SDS011;58703;48.978;8.982;2023-02-20T01:03:35;6.70;;;3.05;;
71046;SDS011;58703;48.978;8.982;2023-02-20T01:06:01;6.90;;;2.90;;
71046;SDS011;58703;48.978;8.982;2023-02-20T01:08:26;9.10;;;3.15;;
71046;SDS011;58703;48.978;8.982;2023-02-20T01:10:52;8.30;;;2.57;;
71046;SDS011;58703;48.978;8.982;2023-02-20T01:13:18;7.05;;;2.83;;
71046;SDS011;58703;48.978;8.982;2023-02-20T01:15:44;10.15;;;2.67;;
71046;SDS011;58703;48.978;8.982;2023-02-20T01:18:09;10.53;;;3.00;;
71046;SDS011;58703;48.978;8.982;2023-02-20T01:20:35;9.13;;;2.95;;
71046;SDS011;58703;48.978;8.982;2023-02-20T01:23:00;10.37;;;3.20;;
71046;SDS011;58703;48.978;8.982;2023-02-20T01:25:26;7.27;;;4.10;;
71046;SDS011;58703;48.978;8.982;2023-02-20T01:27:52;7.72;;;3.50;;
71046;SDS011;58703;48.978;8.982;2023-02-20T01:30:18;9.95;;;3.20;;
71046;SDS011;58703;48.978;8.982;2023-02-20T01:32:44;9.90;;;3.07;;
71046;SDS011;58703;48.978;8.982;2023-02-20T01:35:09;8.18;;;3.17;;
71046;SDS011;58703;48.978;8.982;2023-02-20T01:37:35;8.50;;;3.23;;
71046;SDS011;58703;48.978;8.982;2023-02-20T01:40:01;6.07;;;2.85;;
71046;SDS011;58703;48.978;8.982;2023-02-20T01:42:29;5.73;;;2.87;;
71046;SDS011;58703;48.978;8.982;2023-02-20T01:47:53;7.43;;;2.65;;
71046;SDS011;58703;48.978;8.982;2023-02-20T01:50:31;7.00;;;3.30;;
71046;SDS011;58703;48.978;8.982;2023-02-20T01:53:06;11.23;;;3.83;;
71046;SDS011;58703;48.978;8.982;2023-02-20T01:55:39;8.30;;;2.87;;
71046;SDS011;58703;48.978;8.982;2023-02-20T01:58:15;8.30;;;2.92;;
71046;SDS011;58703;48.978;8.982;2023-02-20T02:00:46;8.93;;;3.55;;
71046;SDS011;58703;48.978;8.982;2023-02-20T02:03:16;9.57;;;3.33;;
71046;SDS011;58703;48.978;8.982;2023-02-20T02:05:46;6.60;;;3.13;;
71046;SDS011;58703;48.978;8.982;2023-02-20T02:08:16;6.93;;;3.35;;
71046;SDS011;58703;48.978;8.982;2023-02-20T02:13:18;7.57;;;3.58;;
71046;SDS011;58703;48.978;8.982;2023-02-20T02:15:44;9.03;;;3.60;;
71046;SDS011;58703;48.978;8.982;2023-02-20T02:20:59;9.35;;;3.45;;
71046;SDS011;58703;48.978;8.982;2023-02-20T02:23:52;7.03;;;3.60;;
71046;SDS011;58703;48.978;8.982;2023-02-20T02:27:02;13.50;;;4.15;;
71046;SDS011;58703;48.978;8.982;2023-02-20T02:41:15;12.27;;;4.30;;
71046;SDS011;58703;48.978;8.982;2023-02-20T02:46:48;10.75;;;4.22;;
71046;SDS011;58703;48.978;8.982;2023-02-20T02:52:10;7.93;;;4.40;;
71046;SDS011;58703;48.978;8.982;2023-02-20T02:54:36;9.60;;;4.32;;
71046;SDS011;58703;48.978;8.982;2023-02-20T02:57:17;8.57;;;4.50;;
71046;SDS011;58703;48.978;8.982;2023-02-20T02:59:49;10.48;;;3.70;;
71046;SDS011;58703;48.978;8.982;2023-02-20T03:02:21;8.70;;;3.58;;
71046;SDS011;58703;48.978;8.982;2023-02-20T03:04:48;8.98;;;3.97;;
71046;SDS011;58703;48.978;8.982;2023-02-20T03:07:16;11.50;;;3.80;;
71046;SDS011;58703;48.978;8.982;2023-02-20T03:09:46;6.07;;;3.23;;
71046;SDS011;58703;48.978;8.982;2023-02-20T03:12:16;8.05;;;3.50;;
71046;SDS011;58703;48.978;8.982;2023-02-20T03:14:47;9.52;;;3.65;;
71046;SDS011;58703;48.978;8.982;2023-02-20T03:21:02;9.80;;;3.03;;
71046;SDS011;58703;48.978;8.982;2023-02-20T03:23:30;10.20;;;3.07;;
71046;SDS011;58703;48.978;8.982;2023-02-20T03:26:03;9.95;;;3.80;;
71046;SDS011;58703;48.978;8.982;2023-02-20T03:28:33;9.95;;;3.13;;
71046;SDS011;58703;48.978;8.982;2023-02-20T03:31:04;8.35;;;3.40;;
71046;SDS011;58703;48.978;8.982;2023-02-20T03:33:49;8.70;;;3.90;;
71046;SDS011;58703;48.978;8.982;2023-02-20T03:37:09;9.10;;;3.77;;
71046;SDS011;58703;48.978;8.982;2023-02-20T03:39:58;11.38;;;3.25;;
71046;SDS011;58703;48.978;8.982;2023-02-20T03:42:47;11.63;;;3.72;;
71046;SDS011;58703;48.978;8.982;2023-02-20T03:45:37;8.00;;;3.72;;
71046;SDS011;58703;48.978;8.982;2023-02-20T03:48:07;8.88;;;4.07;;
71046;SDS011;58703;48.978;8.982;2023-02-20T03:50:38;7.80;;;3.23;;
71046;SDS011;58703;48.978;8.982;2023-02-20T03:53:04;10.27;;;3.65;;
71046;SDS011;58703;48.978;8.982;2023-02-20T03:55:30;10.27;;;4.28;;
71046;SDS011;58703;48.978;8.982;2023-02-20T03:57:57;9.27;;;4.37;;
71046;SDS011;58703;48.978;8.982;2023-02-20T04:00:26;10.35;;;4.50;;
71046;SDS011;58703;48.978;8.982;2023-02-20T04:02:56;6.32;;;3.35;;
71046;SDS011;58703;48.978;8.982;2023-02-20T04:05:29;9.57;;;3.80;;
71046;SDS011;58703;48.978;8.982;2023-02-20T04:08:08;10.20;;;3.83;;
71046;SDS011;58703;48.978;8.982;2023-02-20T04:10:57;10.10;;;3.87;;
71046;SDS011;58703;48.978;8.982;2023-02-20T04:13:27;31.42;;;12.27;;
71046;SDS011;58703;48.978;8.982;2023-02-20T04:15:54;19.67;;;8.18;;
71046;SDS011;58703;48.978;8.982;2023-02-20T04:18:23;19.30;;;6.50;;
71046;SDS011;58703;48.978;8.982;2023-02-20T04:20:51;9.80;;;5.30;;
71046;SDS011;58703;48.978;8.982;2023-02-20T04:23:19;9.50;;;4.85;;
71046;SDS011;58703;48.978;8.982;2023-02-20T04:25:49;11.23;;;5.07;;
71046;SDS011;58703;48.978;8.982;2023-02-20T04:28:20;8.70;;;4.13;;
71046;SDS011;58703;48.978;8.982;2023-02-20T04:30:47;8.15;;;4.30;;
71046;SDS011;58703;48.978;8.982;2023-02-20T04:33:14;9.33;;;4.30;;
71046;SDS011;58703;48.978;8.982;2023-02-20T04:35:42;11.07;;;5.45;;
71046;SDS011;58703;48.978;8.982;2023-02-20T04:38:08;8.82;;;4.03;;
71046;SDS011;58703;48.978;8.982;2023-02-20T04:40:34;8.23;;;3.37;;
71046;SDS011;58703;48.978;8.982;2023-02-20T04:43:00;7.72;;;2.88;;
71046;SDS011;58703;48.978;8.982;2023-02-20T04:45:26;6.00;;;2.80;;
71046;SDS011;58703;48.978;8.982;2023-02-20T04:47:52;6.77;;;3.00;;
71046;SDS011;58703;48.978;8.982;2023-02-20T04:50:19;4.63;;;2.53;;
71046;SDS011;58703;48.978;8.982;2023-02-20T04:52:45;6.70;;;3.17;;
71046;SDS011;58703;48.978;8.982;2023-02-20T04:55:11;6.97;;;2.80;;
71046;SDS011;58703;48.978;8.982;2023-02-20T04:57:36;4.50;;;3.00;;
71046;SDS011;58703;48.978;8.982;2023-02-20T05:00:02;9.65;;;3.35;;
71046;SDS011;58703;48.978;8.982;2023-02-20T05:02:29;4.87;;;2.33;;
71046;SDS011;58703;48.978;8.982;2023-02-20T05:04:55;5.07;;;2.50;;
71046;SDS011;58703;48.978;8.982;2023-02-20T05:07:21;10.47;;;3.13;;
71046;SDS011;58703;48.978;8.982;2023-02-20T05:09:46;6.90;;;3.53;;
71046;SDS011;58703;48.978;8.982;2023-02-20T05:12:12;7.17;;;4.13;;
71046;SDS011;58703;48.978;8.982;2023-02-20T05:14:38;6.78;;;4.03;;
71046;SDS011;58703;48.978;8.982;2023-02-20T05:17:03;9.73;;;5.27;;
71046;SDS011;58703;48.978;8.982;2023-02-20T05:19:29;11.03;;;5.10;;
71046;SDS011;58703;48.978;8.982;2023-02-20T05:21:54;8.43;;;4.60;;
71046;SDS011;58703;48.978;8.982;2023-02-20T05:24:41;7.30;;;3.47;;
71046;SDS011;58703;48.978;8.982;2023-02-20T05:27:07;5.40;;;3.00;;
71046;SDS011;58703;48.978;8.982;2023-02-20T05:29:34;7.22;;;3.97;;
71046;SDS011;58703;48.978;8.982;2023-02-20T05:32:00;5.03;;;2.92;;
71046;SDS011;58703;48.978;8.982;2023-02-20T05:34:26;9.20;;;3.70;;
71046;SDS011;58703;48.978;8.982;2023-02-20T05:36:52;11.03;;;3.70;;
71046;SDS011;58703;48.978;8.982;2023-02-20T05:39:18;9.80;;;3.65;;
71046;SDS011;58703;48.978;8.982;2023-02-20T05:41:45;8.00;;;3.70;;
71046;SDS011;58703;48.978;8.982;2023-02-20T05:44:10;8.20;;;3.07;;
71046;SDS011;58703;48.978;8.982;2023-02-20T05:46:40;8.70;;;3.13;;
71046;SDS011;58703;48.978;8.982;2023-02-20T05:49:06;12.30;;;4.50;;
71046;SDS011;58703;48.978;8.982;2023-02-20T05:51:32;11.77;;;5.00;;
71046;SDS011;58703;48.978;8.982;2023-02-20T05:53:58;7.90;;;4.60;;
71046;SDS011;58703;48.978;8.982;2023-02-20T05:56:23;7.18;;;4.13;;
71046;SDS011;58703;48.978;8.982;2023-02-20T05:58:49;7.93;;;4.30;;
71046;SDS011;58703;48.978;8.982;2023-02-20T06:01:17;8.32;;;4.03;;
71046;SDS011;58703;48.978;8.982;2023-02-20T06:03:49;6.95;;;3.70;;
71046;SDS011;58703;48.978;8.982;2023-02-20T06:06:16;8.15;;;3.42;;
71046;SDS011;58703;48.978;8.982;2023-02-20T06:08:42;8.40;;;4.33;;
71046;SDS011;58703;48.978;8.982;2023-02-20T06:11:09;9.75;;;4.25;;
71046;SDS011;58703;48.978;8.982;2023-02-20T06:13:40;8.32;;;4.88;;
71046;SDS011;58703;48.978;8.982;2023-02-20T06:16:07;12.43;;;4.90;;
71046;SDS011;58703;48.978;8.982;2023-02-20T06:18:40;9.48;;;5.57;;
71046;SDS011;58703;48.978;8.982;2023-02-20T06:21:07;13.30;;;5.17;;
71046;SDS011;58703;48.978;8.982;2023-02-20T06:23:35;9.57;;;5.32;;
71046;SDS011;58703;48.978;8.982;2023-02-20T06:26:03;9.38;;;4.20;;
71046;SDS011;58703;48.978;8.982;2023-02-20T06:28:30;6.05;;;4.00;;
71046;SDS011;58703;48.978;8.982;2023-02-20T06:30:56;7.80;;;3.70;;
71046;SDS011;58703;48.978;8.982;2023-02-20T06:33:21;8.63;;;3.80;;
71046;SDS011;58703;48.978;8.982;2023-02-20T06:35:47;9.27;;;3.87;;
71046;SDS011;58703;48.978;8.982;2023-02-20T06:38:12;6.77;;;4.23;;
71046;SDS011;58703;48.978;8.982;2023-02-20T06:40:39;8.20;;;3.20;;
71046;SDS011;58703;48.978;8.982;2023-02-20T06:43:05;7.47;;;3.90;;
71046;SDS011;58703;48.978;8.982;2023-02-20T06:45:30;11.47;;;3.90;;
71046;SDS011;58703;48.978;8.982;2023-02-20T06:47:56;9.40;;;4.35;;
71046;SDS011;58703;48.978;8.982;2023-02-20T06:50:21;12.93;;;4.40;;
71046;SDS011;58703;48.978;8.982;2023-02-20T06:52:47;26.80;;;12.40;;
71046;SDS011;58703;48.978;8.982;2023-02-20T06:55:12;10.70;;;6.50;;
71046;SDS011;58703;48.978;8.982;2023-02-20T06:57:38;11.40;;;4.50;;
71046;SDS011;58703;48.978;8.982;2023-02-20T07:00:04;13.53;;;4.73;;
71046;SDS011;58703;48.978;8.982;2023-02-20T07:02:30;13.98;;;6.25;;
71046;SDS011;58703;48.978;8.982;2023-02-20T07:04:55;9.60;;;3.97;;
71046;SDS011;58703;48.978;8.982;2023-02-20T07:07:21;12.23;;;4.60;;
71046;SDS011;58703;48.978;8.982;2023-02-20T07:09:47;12.83;;;4.47;;
71046;SDS011;58703;48.978;8.982;2023-02-20T07:12:12;8.93;;;4.50;;
71046;SDS011;58703;48.978;8.982;2023-02-20T07:14:38;6.73;;;4.13;;
71046;SDS011;58703;48.978;8.982;2023-02-20T07:17:04;10.88;;;5.35;;
71046;SDS011;58703;48.978;8.982;2023-02-20T07:19:29;13.48;;;4.25;;
71046;SDS011;58703;48.978;8.982;2023-02-20T07:21:55;11.63;;;4.35;;
71046;SDS011;58703;48.978;8.982;2023-02-20T07:24:21;10.60;;;4.07;;
71046;SDS011;58703;48.978;8.982;2023-02-20T07:26:46;10.97;;;4.67;;
71046;SDS011;58703;48.978;8.982;2023-02-20T07:29:12;8.35;;;4.25;;
71046;SDS011;58703;48.978;8.982;2023-02-20T07:31:38;10.60;;;5.38;;
71046;SDS011;58703;48.978;8.982;2023-02-20T07:34:04;11.90;;;6.33;;
71046;SDS011;58703;48.978;8.982;2023-02-20T07:36:29;18.15;;;10.57;;
71046;SDS011;58703;48.978;8.982;2023-02-20T07:38:55;17.03;;;9.00;;
71046;SDS011;58703;48.978;8.982;2023-02-20T07:41:23;14.32;;;9.02;;
71046;SDS011;58703;48.978;8.982;2023-02-20T07:43:49;17.83;;;10.05;;
71046;SDS011;58703;48.978;8.982;2023-02-20T07:46:15;21.67;;;11.20;;
71046;SDS011;58703;48.978;8.982;2023-02-20T07:48:41;20.42;;;11.32;;
71046;SDS011;58703;48.978;8.982;2023-02-20T07:51:06;22.07;;;10.90;;
71046;SDS011;58703;48.978;8.982;2023-02-20T07:53:32;24.83;;;10.77;;
71046;SDS011;58703;48.978;8.982;2023-02-20T07:55:58;19.87;;;9.60;;
71046;SDS011;58703;48.978;8.982;2023-02-20T07:58:23;16.03;;;9.20;;
71046;SDS011;58703;48.978;8.982;2023-02-20T08:00:49;15.82;;;8.45;;
71046;SDS011;58703;48.978;8.982;2023-02-20T08:03:18;13.93;;;7.57;;
71046;SDS011;58703;48.978;8.982;2023-02-20T08:05:44;14.87;;;8.27;;
71046;SDS011;58703;48.978;8.982;2023-02-20T08:08:10;14.57;;;7.50;;
71046;SDS011;58703;48.978;8.982;2023-02-20T08:10:35;14.57;;;8.73;;
71046;SDS011;58703;48.978;8.982;2023-02-20T08:13:01;19.23;;;11.53;;
71046;SDS011;58703;48.978;8.982;2023-02-20T08:15:27;18.95;;;10.80;;
71046;SDS011;58703;48.978;8.982;2023-02-20T08:17:53;15.95;;;8.90;;
71046;SDS011;58703;48.978;8.982;2023-02-20T08:20:19;15.07;;;8.80;;
71046;SDS011;58703;48.978;8.982;2023-02-20T08:22:46;26.92;;;13.52;;
71046;SDS011;58703;48.978;8.982;2023-02-20T08:25:13;11.73;;;5.75;;
71046;SDS011;58703;48.978;8.982;2023-02-20T08:27:43;13.23;;;7.97;;
71046;SDS011;58703;48.978;8.982;2023-02-20T08:30:11;8.35;;;5.10;;
71046;SDS011;58703;48.978;8.982;2023-02-20T08:32:40;10.70;;;5.38;;
71046;SDS011;58703;48.978;8.982;2023-02-20T08:35:05;6.97;;;4.33;;
71046;SDS011;58703;48.978;8.982;2023-02-20T08:37:31;26.88;;;4.68;;
71046;SDS011;58703;48.978;8.982;2023-02-20T08:39:56;11.97;;;3.50;;
71046;SDS011;58703;48.978;8.982;2023-02-20T08:42:22;10.80;;;3.30;;
71046;SDS011;58703;48.978;8.982;2023-02-20T08:44:48;5.55;;;2.80;;
71046;SDS011;58703;48.978;8.982;2023-02-20T08:47:13;7.17;;;3.30;;
71046;SDS011;58703;48.978;8.982;2023-02-20T08:49:39;9.10;;;2.87;;
71046;SDS011;58703;48.978;8.982;2023-02-20T08:52:04;6.80;;;2.63;;
71046;SDS011;58703;48.978;8.982;2023-02-20T08:54:30;8.07;;;3.03;;
71046;SDS011;58703;48.978;8.982;2023-02-20T08:56:56;4.97;;;2.97;;
71046;SDS011;58703;48.978;8.982;2023-02-20T08:59:21;4.47;;;2.50;;
71046;SDS011;58703;48.978;8.982;2023-02-20T09:01:47;5.97;;;2.35;;
71046;SDS011;58703;48.978;8.982;2023-02-20T09:04:12;6.17;;;1.90;;
71046;SDS011;58703;48.978;8.982;2023-02-20T09:06:39;5.07;;;1.90;;
71046;SDS011;58703;48.978;8.982;2023-02-20T09:09:05;5.40;;;1.93;;
71046;SDS011;58703;48.978;8.982;2023-02-20T09:11:30;5.80;;;2.72;;
71046;SDS011;58703;48.978;8.982;2023-02-20T09:13:56;3.07;;;2.07;;
71046;SDS011;58703;48.978;8.982;2023-02-20T09:16:22;3.17;;;1.90;;
71046;SDS011;58703;48.978;8.982;2023-02-20T09:18:48;7.43;;;2.00;;
71046;SDS011;58703;48.978;8.982;2023-02-20T09:21:16;5.05;;;2.08;;
71046;SDS011;58703;48.978;8.982;2023-02-20T09:23:43;5.13;;;2.40;;
71046;SDS011;58703;48.978;8.982;2023-02-20T09:26:09;5.15;;;1.98;;
71046;SDS011;58703;48.978;8.982;2023-02-20T09:28:34;8.93;;;3.17;;
71046;SDS011;58703;48.978;8.982;2023-02-20T09:31:00;6.10;;;2.20;;
71046;SDS011;58703;48.978;8.982;2023-02-20T09:33:28;6.65;;;2.22;;
71046;SDS011;58703;48.978;8.982;2023-02-20T09:35:54;5.20;;;2.73;;
71046;SDS011;58703;48.978;8.982;2023-02-20T09:38:20;4.90;;;2.42;;
71046;SDS011;58703;48.978;8.982;2023-02-20T09:40:51;4.72;;;2.50;;
71046;SDS011;58703;48.978;8.982;2023-02-20T09:49:04;3.43;;;1.90;;
71046;SDS011;58703;48.978;8.982;2023-02-20T09:51:41;5.78;;;1.02;;
71046;SDS011;58703;48.978;8.982;2023-02-20T09:54:28;4.95;;;1.60;;
71046;SDS011;58703;48.978;8.982;2023-02-20T09:57:11;5.20;;;1.67;;
71046;SDS011;58703;48.978;8.982;2023-02-20T09:59:40;5.05;;;1.33;;
71046;SDS011;58703;48.978;8.982;2023-02-20T10:02:18;5.53;;;1.43;;
71046;SDS011;58703;48.978;8.982;2023-02-20T10:04:49;6.00;;;1.73;;
71046;SDS011;58703;48.978;8.982;2023-02-20T10:07:20;2.75;;;1.60;;
71046;SDS011;58703;48.978;8.982;2023-02-20T10:09:49;6.03;;;1.70;;
71046;SDS011;58703;48.978;8.982;2023-02-20T10:12:18;11.95;;;7.80;;
71046;SDS011;58703;48.978;8.982;2023-02-20T10:26:10;3.50;;;1.83;;
71046;SDS011;58703;48.978;8.982;2023-02-20T10:28:46;4.20;;;1.00;;
71046;SDS011;58703;48.978;8.982;2023-02-20T10:32:15;5.32;;;1.30;;
71046;SDS011;58703;48.978;8.982;2023-02-20T10:34:20;9.82;;;6.03;;
71046;SDS011;58703;48.978;8.982;2023-02-20T10:37:10;2.70;;;1.45;;
71046;SDS011;58703;48.978;8.982;2023-02-20T10:39:49;3.70;;;0.90;;
71046;SDS011;58703;48.978;8.982;2023-02-20T10:42:26;4.57;;;1.10;;
71046;SDS011;58703;48.978;8.982;2023-02-20T10:47:35;2.22;;;1.20;;
71046;SDS011;58703;48.978;8.982;2023-02-20T10:50:15;4.75;;;1.10;;
71046;SDS011;58703;48.978;8.982;2023-02-20T10:53:15;2.47;;;1.08;;
71046;SDS011;58703;48.978;8.982;2023-02-20T10:56:07;4.50;;;1.70;;
71046;SDS011;58703;48.978;8.982;2023-02-20T11:01:21;11.05;;;5.28;;
71046;SDS011;58703;48.978;8.982;2023-02-20T11:06:43;4.05;;;0.93;;
71046;SDS011;58703;48.978;8.982;2023-02-20T11:09:10;6.37;;;1.20;;
71046;SDS011;58703;48.978;8.982;2023-02-20T11:11:38;3.78;;;0.73;;
71046;SDS011;58703;48.978;8.982;2023-02-20T11:14:10;3.63;;;1.20;;
71046;SDS011;58703;48.978;8.982;2023-02-20T11:16:40;4.85;;;1.45;;
71046;SDS011;58703;48.978;8.982;2023-02-20T11:19:56;4.13;;;0.80;;
71046;SDS011;58703;48.978;8.982;2023-02-20T11:22:04;7.93;;;1.17;;
71046;SDS011;58703;48.978;8.982;2023-02-20T11:24:34;19.83;;;8.23;;
71046;SDS011;58703;48.978;8.982;2023-02-20T11:27:02;4.10;;;1.42;;
71046;SDS011;58703;48.978;8.982;2023-02-20T11:29:39;3.17;;;0.90;;
71046;SDS011;58703;48.978;8.982;2023-02-20T11:32:16;4.65;;;2.00;;
71046;SDS011;58703;48.978;8.982;2023-02-20T11:37:43;4.63;;;1.10;;
71046;SDS011;58703;48.978;8.982;2023-02-20T11:40:35;2.65;;;1.35;;
71046;SDS011;58703;48.978;8.982;2023-02-20T11:43:13;8.30;;;2.80;;
71046;SDS011;58703;48.978;8.982;2023-02-20T11:45:43;3.50;;;0.98;;
71046;SDS011;58703;48.978;8.982;2023-02-20T11:48:10;5.80;;;1.55;;
71046;SDS011;58703;48.978;8.982;2023-02-20T11:50:37;3.57;;;0.83;;
71046;SDS011;58703;48.978;8.982;2023-02-20T11:53:04;3.50;;;0.85;;
71046;SDS011;58703;48.978;8.982;2023-02-20T11:55:32;7.13;;;1.50;;
71046;SDS011;58703;48.978;8.982;2023-02-20T11:57:59;4.13;;;0.77;;
71046;SDS011;58703;48.978;8.982;2023-02-20T12:00:26;4.03;;;0.95;;
71046;SDS011;58703;48.978;8.982;2023-02-20T12:03:09;2.23;;;1.00;;
71046;SDS011;58703;48.978;8.982;2023-02-20T12:05:41;3.42;;;0.75;;
71046;SDS011;58703;48.978;8.982;2023-02-20T12:11:08;3.60;;;0.88;;
71046;SDS011;58703;48.978;8.982;2023-02-20T12:13:38;4.95;;;1.70;;
71046;SDS011;58703;48.978;8.982;2023-02-20T12:16:11;2.60;;;0.90;;
71046;SDS011;58703;48.978;8.982;2023-02-20T12:21:32;3.10;;;0.68;;
71046;SDS011;58703;48.978;8.982;2023-02-20T12:32:08;2.78;;;0.93;;
71046;SDS011;58703;48.978;8.982;2023-02-20T12:34:49;4.10;;;1.02;;
71046;SDS011;58703;48.978;8.982;2023-02-20T12:37:28;5.32;;;1.40;;
71046;SDS011;58703;48.978;8.982;2023-02-20T12:42:51;3.13;;;1.20;;
71046;SDS011;58703;48.978;8.982;2023-02-20T12:45:24;3.13;;;0.88;;
71046;SDS011;58703;48.978;8.982;2023-02-20T12:48:03;4.60;;;0.75;;
71046;SDS011;58703;48.978;8.982;2023-02-20T12:50:47;2.20;;;0.65;;
71046;SDS011;58703;48.978;8.982;2023-02-20T12:56:15;3.00;;;0.70;;
71046;SDS011;58703;48.978;8.982;2023-02-20T13:01:46;2.22;;;0.90;;
71046;SDS011;58703;48.978;8.982;2023-02-20T13:07:16;2.60;;;0.90;;
71046;SDS011;58703;48.978;8.982;2023-02-20T13:12:36;2.75;;;0.63;;
71046;SDS011;58703;48.978;8.982;2023-02-20T13:20:48;3.58;;;0.80;;
71046;SDS011;58703;48.978;8.982;2023-02-20T13:25:43;3.30;;;0.90;;
71046;SDS011;58703;48.978;8.982;2023-02-20T13:30:44;1.35;;;0.60;;
71046;SDS011;58703;48.978;8.982;2023-02-20T13:33:30;3.47;;;0.87;;
71046;SDS011;58703;48.978;8.982;2023-02-20T13:35:57;4.47;;;0.85;;
71046;SDS011;58703;48.978;8.982;2023-02-20T13:38:24;2.85;;;0.70;;
71046;SDS011;58703;48.978;8.982;2023-02-20T13:56:26;2.85;;;0.60;;
71046;SDS011;58703;48.978;8.982;2023-02-20T13:58:56;3.03;;;0.80;;
71046;SDS011;58703;48.978;8.982;2023-02-20T14:01:23;3.60;;;1.00;;
71046;SDS011;58703;48.978;8.982;2023-02-20T14:03:59;2.25;;;0.95;;
71046;SDS011;58703;48.978;8.982;2023-02-20T14:06:28;2.13;;;0.90;;
71046;SDS011;58703;48.978;8.982;2023-02-20T14:09:07;2.07;;;0.77;;
71046;SDS011;58703;48.978;8.982;2023-02-20T14:11:35;2.70;;;0.80;;
71046;SDS011;58703;48.978;8.982;2023-02-20T14:14:05;2.65;;;0.90;;
71046;SDS011;58703;48.978;8.982;2023-02-20T14:16:35;2.10;;;0.90;;
71046;SDS011;58703;48.978;8.982;2023-02-20T14:19:06;3.80;;;1.03;;
71046;SDS011;58703;48.978;8.982;2023-02-20T14:21:49;3.60;;;1.45;;
71046;SDS011;58703;48.978;8.982;2023-02-20T14:24:22;2.65;;;1.27;;
71046;SDS011;58703;48.978;8.982;2023-02-20T14:26:50;2.33;;;1.20;;
71046;SDS011;58703;48.978;8.982;2023-02-20T14:29:24;2.63;;;1.30;;
71046;SDS011;58703;48.978;8.982;2023-02-20T14:31:53;2.03;;;0.80;;
71046;SDS011;58703;48.978;8.982;2023-02-20T14:42:23;3.55;;;0.90;;
71046;SDS011;58703;48.978;8.982;2023-02-20T14:44:51;3.20;;;1.10;;
71046;SDS011;58703;48.978;8.982;2023-02-20T14:47:28;2.58;;;1.20;;
71046;SDS011;58703;48.978;8.982;2023-02-20T14:50:18;3.97;;;1.20;;
71046;SDS011;58703;48.978;8.982;2023-02-20T14:52:46;2.83;;;1.27;;
71046;SDS011;58703;48.978;8.982;2023-02-20T14:55:17;4.35;;;1.30;;
71046;SDS011;58703;48.978;8.982;2023-02-20T14:57:42;3.67;;;1.35;;
71046;SDS011;58703;48.978;8.982;2023-02-20T15:02:48;4.70;;;1.48;;
71046;SDS011;58703;48.978;8.982;2023-02-20T15:05:24;3.15;;;1.05;;
71046;SDS011;58703;48.978;8.982;2023-02-20T15:08:18;7.15;;;1.50;;
71046;SDS011;58703;48.978;8.982;2023-02-20T15:10:53;5.43;;;1.60;;
71046;SDS011;58703;48.978;8.982;2023-02-20T15:13:23;3.30;;;1.48;;
71046;SDS011;58703;48.978;8.982;2023-02-20T15:18:34;3.28;;;1.13;;
71046;SDS011;58703;48.978;8.982;2023-02-20T15:21:01;3.70;;;1.70;;
71046;SDS011;58703;48.978;8.982;2023-02-20T15:23:31;4.87;;;1.40;;
71046;SDS011;58703;48.978;8.982;2023-02-20T15:29:15;4.68;;;1.40;;
71046;SDS011;58703;48.978;8.982;2023-02-20T15:31:45;3.65;;;1.27;;
71046;SDS011;58703;48.978;8.982;2023-02-20T15:34:22;3.72;;;1.73;;
71046;SDS011;58703;48.978;8.982;2023-02-20T15:36:50;2.33;;;1.10;;
71046;SDS011;58703;48.978;8.982;2023-02-20T15:39:16;3.53;;;1.35;;
71046;SDS011;58703;48.978;8.982;2023-02-20T15:41:43;4.68;;;1.23;;
71046;SDS011;58703;48.978;8.982;2023-02-20T15:44:09;5.23;;;2.00;;
71046;SDS011;58703;48.978;8.982;2023-02-20T15:46:35;3.50;;;1.15;;
71046;SDS011;58703;48.978;8.982;2023-02-20T15:49:01;1.73;;;1.30;;
71046;SDS011;58703;48.978;8.982;2023-02-20T15:51:27;5.63;;;1.25;;
71046;SDS011;58703;48.978;8.982;2023-02-20T15:53:55;3.28;;;1.65;;
71046;SDS011;58703;48.978;8.982;2023-02-20T15:56:22;4.32;;;1.80;;
71046;SDS011;58703;48.978;8.982;2023-02-20T15:58:48;3.20;;;1.63;;
71046;SDS011;58703;48.978;8.982;2023-02-20T16:01:15;2.97;;;1.60;;
71046;SDS011;58703;48.978;8.982;2023-02-20T16:03:41;4.47;;;1.55;;
71046;SDS011;58703;48.978;8.982;2023-02-20T16:06:07;3.95;;;1.42;;
71046;SDS011;58703;48.978;8.982;2023-02-20T16:08:33;3.08;;;1.40;;
71046;SDS011;58703;48.978;8.982;2023-02-20T16:11:00;4.80;;;1.67;;
71046;SDS011;58703;48.978;8.982;2023-02-20T16:13:32;3.05;;;1.58;;
71046;SDS011;58703;48.978;8.982;2023-02-20T16:16:31;2.70;;;1.40;;
71046;SDS011;58703;48.978;8.982;2023-02-20T16:18:52;4.78;;;1.15;;
71046;SDS011;58703;48.978;8.982;2023-02-20T16:21:19;4.90;;;1.10;;
71046;SDS011;58703;48.978;8.982;2023-02-20T16:23:45;7.40;;;1.67;;
71046;SDS011;58703;48.978;8.982;2023-02-20T16:26:14;4.18;;;1.40;;
71046;SDS011;58703;48.978;8.982;2023-02-20T16:28:41;4.00;;;1.15;;
71046;SDS011;58703;48.978;8.982;2023-02-20T16:31:08;4.63;;;1.10;;
71046;SDS011;58703;48.978;8.982;2023-02-20T16:33:35;2.30;;;1.35;;
71046;SDS011;58703;48.978;8.982;2023-02-20T16:36:01;4.70;;;1.20;;
71046;SDS011;58703;48.978;8.982;2023-02-20T16:38:27;3.78;;;1.20;;
71046;SDS011;58703;48.978;8.982;2023-02-20T16:40:52;3.37;;;1.13;;
71046;SDS011;58703;48.978;8.982;2023-02-20T16:43:22;7.40;;;1.13;;
71046;SDS011;58703;48.978;8.982;2023-02-20T16:45:50;3.15;;;1.35;;
71046;SDS011;58703;48.978;8.982;2023-02-20T16:48:17;3.27;;;1.17;;
71046;SDS011;58703;48.978;8.982;2023-02-20T16:50:47;5.75;;;1.15;;
71046;SDS011;58703;48.978;8.982;2023-02-20T16:53:14;3.92;;;1.20;;
71046;SDS011;58703;48.978;8.982;2023-02-20T16:55:40;2.70;;;1.05;;
71046;SDS011;58703;48.978;8.982;2023-02-20T16:58:06;3.20;;;1.53;;
71046;SDS011;58703;48.978;8.982;2023-02-20T17:00:36;3.50;;;1.30;;
71046;SDS011;58703;48.978;8.982;2023-02-20T17:03:05;3.90;;;1.00;;
71046;SDS011;58703;48.978;8.982;2023-02-20T17:05:34;5.32;;;1.15;;
71046;SDS011;58703;48.978;8.982;2023-02-20T17:08:01;2.45;;;1.02;;